sensor_id;sensor_type;location;lat;lon;timestamp;pressure;altitude;pressure_sealevel;temperature;humidity
55149;BME280;49539;48.160;11.530;2022-08-19T00:02:09;95388.94;;;18.16;100.00
55149;BME280;49539;48.160;11.530;2022-08-19T00:04:35;95390.16;;;18.15;100.00
55149;BME280;49539;48.160;11.530;2022-08-19T00:07:03;95405.94;;;18.14;100.00
55149;BME280;49539;48.160;11.530;2022-08-19T00:09:29;95391.28;;;18.23;100.00
55149;BME280;49539;48.160;11.530;2022-08-19T00:11:56;95383.75;;;18.23;100.00
55149;BME280;49539;48.160;11.530;2022-08-19T00:14:22;95399.06;;;18.24;100.00
55149;BME280;49539;48.160;11.530;2022-08-19T00:16:49;95393.88;;;18.32;100.00
55149;BME280;49539;48.160;11.530;2022-08-19T00:19:16;95393.03;;;18.26;100.00
55149;BME280;49539;48.160;11.530;2022-08-19T00:21:42;95387.47;;;18.20;100.00
55149;BME280;49539;48.160;11.530;2022-08-19T00:24:10;95370.38;;;18.16;100.00
55149;BME280;49539;48.160;11.530;2022-08-19T00:26:37;95356.44;;;18.25;100.00
55149;BME280;49539;48.160;11.530;2022-08-19T00:29:03;95359.91;;;18.20;100.00
55149;BME280;49539;48.160;11.530;2022-08-19T00:31:29;95346.69;;;18.24;100.00
55149;BME280;49539;48.160;11.530;2022-08-19T00:33:56;95341.09;;;18.19;100.00
55149;BME280;49539;48.160;11.530;2022-08-19T00:36:21;95340.19;;;18.27;100.00
55149;BME280;49539;48.160;11.530;2022-08-19T00:38:47;95341.91;;;18.25;100.00
55149;BME280;49539;48.160;11.530;2022-08-19T00:41:18;95347.22;;;18.28;100.00
55149;BME280;49539;48.160;11.530;2022-08-19T00:44:03;95355.28;;;18.32;100.00
55149;BME280;49539;48.160;11.530;2022-08-19T00:46:30;95344.97;;;18.27;100.00
55149;BME280;49539;48.160;11.530;2022-08-19T00:48:58;95343.50;;;18.31;100.00
55149;BME280;49539;48.160;11.530;2022-08-19T00:51:27;95335.91;;;18.26;100.00
55149;BME280;49539;48.160;11.530;2022-08-19T00:53:56;95331.69;;;18.31;100.00
55149;BME280;49539;48.160;11.530;2022-08-19T00:56:23;95311.63;;;18.30;100.00
55149;BME280;49539;48.160;11.530;2022-08-19T00:58:49;95306.28;;;18.21;100.00
55149;BME280;49539;48.160;11.530;2022-08-19T01:01:15;95312.69;;;18.33;100.00
55149;BME280;49539;48.160;11.530;2022-08-19T01:03:40;95333.22;;;18.32;100.00
55149;BME280;49539;48.160;11.530;2022-08-19T01:06:06;95323.72;;;18.33;100.00
55149;BME280;49539;48.160;11.530;2022-08-19T01:08:31;95320.63;;;18.25;100.00
55149;BME280;49539;48.160;11.530;2022-08-19T01:10:58;95332.19;;;18.29;100.00
55149;BME280;49539;48.160;11.530;2022-08-19T01:13:28;95322.19;;;18.32;100.00
55149;BME280;49539;48.160;11.530;2022-08-19T01:16:03;95302.41;;;18.33;100.00
55149;BME280;49539;48.160;11.530;2022-08-19T01:18:30;95314.13;;;18.28;100.00
55149;BME280;49539;48.160;11.530;2022-08-19T01:21:00;95320.22;;;18.12;100.00
55149;BME280;49539;48.160;11.530;2022-08-19T01:23:27;95324.06;;;18.20;100.00
55149;BME280;49539;48.160;11.530;2022-08-19T01:26:13;95325.31;;;18.19;100.00
55149;BME280;49539;48.160;11.530;2022-08-19T01:28:40;95325.31;;;18.19;100.00
55149;BME280;49539;48.160;11.530;2022-08-19T01:31:08;95323.03;;;18.18;100.00
55149;BME280;49539;48.160;11.530;2022-08-19T01:33:37;95329.00;;;18.10;100.00
55149;BME280;49539;48.160;11.530;2022-08-19T01:36:36;95335.72;;;18.09;100.00
55149;BME280;49539;48.160;11.530;2022-08-19T01:39:06;95338.28;;;18.13;100.00
55149;BME280;49539;48.160;11.530;2022-08-19T01:41:32;95347.59;;;18.16;100.00
55149;BME280;49539;48.160;11.530;2022-08-19T01:43:58;95357.00;;;18.09;100.00
55149;BME280;49539;48.160;11.530;2022-08-19T01:46:24;95344.53;;;18.14;100.00
55149;BME280;49539;48.160;11.530;2022-08-19T01:48:49;95349.84;;;18.17;100.00
55149;BME280;49539;48.160;11.530;2022-08-19T01:51:15;95359.91;;;18.20;100.00
55149;BME280;49539;48.160;11.530;2022-08-19T01:53:41;95367.44;;;18.20;100.00
55149;BME280;49539;48.160;11.530;2022-08-19T01:56:07;95359.91;;;18.20;100.00
55149;BME280;49539;48.160;11.530;2022-08-19T01:58:41;95365.22;;;18.24;100.00
55149;BME280;49539;48.160;11.530;2022-08-19T02:01:08;95362.16;;;18.22;100.00
55149;BME280;49539;48.160;11.530;2022-08-19T02:03:34;95352.44;;;18.26;100.00
55149;BME280;49539;48.160;11.530;2022-08-19T02:06:02;95349.13;;;18.22;100.00
55149;BME280;49539;48.160;11.530;2022-08-19T02:08:31;95350.19;;;18.25;100.00
55149;BME280;49539;48.160;11.530;2022-08-19T02:10:57;95348.59;;;18.18;100.00
55149;BME280;49539;48.160;11.530;2022-08-19T02:13:24;95355.75;;;18.30;100.00
55149;BME280;49539;48.160;11.530;2022-08-19T02:15:51;95368.44;;;18.22;100.00
55149;BME280;49539;48.160;11.530;2022-08-19T02:18:16;95364.78;;;18.31;100.00
55149;BME280;49539;48.160;11.530;2022-08-19T02:20:43;95371.75;;;18.26;100.00
55149;BME280;49539;48.160;11.530;2022-08-19T02:23:09;95374.28;;;18.30;100.00
55149;BME280;49539;48.160;11.530;2022-08-19T02:25:35;95376.16;;;18.39;100.00
55149;BME280;49539;48.160;11.530;2022-08-19T02:28:00;95379.94;;;18.41;100.00
55149;BME280;49539;48.160;11.530;2022-08-19T02:30:26;95375.19;;;18.42;100.00
55149;BME280;49539;48.160;11.530;2022-08-19T02:32:52;95380.56;;;18.30;100.00
55149;BME280;49539;48.160;11.530;2022-08-19T02:35:18;95381.88;;;18.35;100.00
55149;BME280;49539;48.160;11.530;2022-08-19T02:37:44;95385.88;;;18.34;100.00
55149;BME280;49539;48.160;11.530;2022-08-19T02:40:29;95378.63;;;18.37;100.00
55149;BME280;49539;48.160;11.530;2022-08-19T02:42:55;95370.91;;;18.41;100.00
55149;BME280;49539;48.160;11.530;2022-08-19T02:45:21;95361.59;;;18.38;100.00
55149;BME280;49539;48.160;11.530;2022-08-19T02:47:47;95337.31;;;18.42;100.00
55149;BME280;49539;48.160;11.530;2022-08-19T02:50:12;95318.03;;;18.42;100.00
55149;BME280;49539;48.160;11.530;2022-08-19T02:52:38;95303.66;;;18.32;100.00
55149;BME280;49539;48.160;11.530;2022-08-19T02:55:04;95309.44;;;18.34;100.00
55149;BME280;49539;48.160;11.530;2022-08-19T02:57:30;95317.31;;;18.21;100.00
55149;BME280;49539;48.160;11.530;2022-08-19T02:59:57;95309.38;;;18.29;100.00
55149;BME280;49539;48.160;11.530;2022-08-19T03:02:23;95303.38;;;18.30;100.00
55149;BME280;49539;48.160;11.530;2022-08-19T03:04:48;95305.88;;;18.28;100.00
55149;BME280;49539;48.160;11.530;2022-08-19T03:07:15;95302.53;;;18.19;100.00
55149;BME280;49539;48.160;11.530;2022-08-19T03:09:40;95309.47;;;18.14;100.00
55149;BME280;49539;48.160;11.530;2022-08-19T03:12:09;95318.28;;;18.18;100.00
55149;BME280;49539;48.160;11.530;2022-08-19T03:14:35;95323.69;;;18.07;100.00
55149;BME280;49539;48.160;11.530;2022-08-19T03:17:01;95325.78;;;18.18;100.00
55149;BME280;49539;48.160;11.530;2022-08-19T03:19:28;95324.69;;;18.09;100.00
55149;BME280;49539;48.160;11.530;2022-08-19T03:21:53;95319.81;;;18.19;100.00
55149;BME280;49539;48.160;11.530;2022-08-19T03:24:20;95322.50;;;18.14;100.00
55149;BME280;49539;48.160;11.530;2022-08-19T03:26:49;95336.81;;;18.18;100.00
55149;BME280;49539;48.160;11.530;2022-08-19T03:29:15;95354.88;;;18.19;100.00
55149;BME280;49539;48.160;11.530;2022-08-19T03:31:43;95355.44;;;18.23;100.00
55149;BME280;49539;48.160;11.530;2022-08-19T03:34:19;95349.00;;;18.31;100.00
55149;BME280;49539;48.160;11.530;2022-08-19T03:36:45;95355.50;;;18.28;100.00
55149;BME280;49539;48.160;11.530;2022-08-19T03:39:11;95342.47;;;18.29;100.00
55149;BME280;49539;48.160;11.530;2022-08-19T03:41:39;95341.41;;;18.26;100.00
55149;BME280;49539;48.160;11.530;2022-08-19T03:44:05;95345.44;;;18.25;100.00
55149;BME280;49539;48.160;11.530;2022-08-19T03:46:32;95343.41;;;18.26;100.00
55149;BME280;49539;48.160;11.530;2022-08-19T03:49:00;95336.94;;;18.29;100.00
55149;BME280;49539;48.160;11.530;2022-08-19T03:51:33;95326.53;;;18.18;100.00
55149;BME280;49539;48.160;11.530;2022-08-19T03:54:01;95335.91;;;18.26;100.00
55149;BME280;49539;48.160;11.530;2022-08-19T03:56:28;95333.78;;;18.36;100.00
55149;BME280;49539;48.160;11.530;2022-08-19T03:58:55;95332.94;;;18.30;100.00
55149;BME280;49539;48.160;11.530;2022-08-19T04:01:23;95335.97;;;18.32;100.00
55149;BME280;49539;48.160;11.530;2022-08-19T04:03:49;95339.16;;;18.25;100.00
55149;BME280;49539;48.160;11.530;2022-08-19T04:06:17;95330.19;;;18.30;100.00
55149;BME280;49539;48.160;11.530;2022-08-19T04:08:44;95337.19;;;18.31;100.00
55149;BME280;49539;48.160;11.530;2022-08-19T04:11:13;95332.41;;;18.26;100.00
55149;BME280;49539;48.160;11.530;2022-08-19T04:13:40;95332.19;;;18.29;100.00
55149;BME280;49539;48.160;11.530;2022-08-19T04:16:06;95325.66;;;18.27;100.00
55149;BME280;49539;48.160;11.530;2022-08-19T04:18:35;95329.09;;;18.22;100.00
55149;BME280;49539;48.160;11.530;2022-08-19T04:21:00;95333.16;;;18.26;100.00
55149;BME280;49539;48.160;11.530;2022-08-19T04:23:26;95332.69;;;18.28;100.00
55149;BME280;49539;48.160;11.530;2022-08-19T04:25:55;95335.78;;;18.35;100.00
55149;BME280;49539;48.160;11.530;2022-08-19T04:28:21;95324.25;;;18.37;100.00
55149;BME280;49539;48.160;11.530;2022-08-19T04:30:52;95326.50;;;18.39;100.00
55149;BME280;49539;48.160;11.530;2022-08-19T04:33:20;95328.03;;;18.40;100.00
55149;BME280;49539;48.160;11.530;2022-08-19T04:35:48;95338.75;;;18.32;100.00
55149;BME280;49539;48.160;11.530;2022-08-19T04:38:16;95362.16;;;18.22;100.00
55149;BME280;49539;48.160;11.530;2022-08-19T04:40:47;95360.03;;;18.31;100.00
55149;BME280;49539;48.160;11.530;2022-08-19T04:43:34;95359.13;;;18.40;100.00
55149;BME280;49539;48.160;11.530;2022-08-19T04:46:11;95364.34;;;18.38;100.00
55149;BME280;49539;48.160;11.530;2022-08-19T04:48:38;95366.38;;;18.38;100.00
55149;BME280;49539;48.160;11.530;2022-08-19T04:51:10;95379.94;;;18.41;100.00
55149;BME280;49539;48.160;11.530;2022-08-19T04:53:37;95377.69;;;18.40;100.00
55149;BME280;49539;48.160;11.530;2022-08-19T04:56:11;95377.22;;;18.47;100.00
55149;BME280;49539;48.160;11.530;2022-08-19T04:58:40;95382.16;;;18.37;100.00
55149;BME280;49539;48.160;11.530;2022-08-19T05:01:08;95377.22;;;18.47;100.00
55149;BME280;49539;48.160;11.530;2022-08-19T05:03:35;95382.00;;;18.46;100.00
55149;BME280;49539;48.160;11.530;2022-08-19T05:06:10;95392.06;;;18.49;100.00
55149;BME280;49539;48.160;11.530;2022-08-19T05:08:38;95391.56;;;18.51;100.00
55149;BME280;49539;48.160;11.530;2022-08-19T05:11:14;95397.38;;;18.53;100.00
55149;BME280;49539;48.160;11.530;2022-08-19T05:13:40;95397.56;;;18.49;100.00
55149;BME280;49539;48.160;11.530;2022-08-19T05:16:06;95399.84;;;18.51;100.00
55149;BME280;49539;48.160;11.530;2022-08-19T05:18:31;95393.78;;;18.47;100.00
55149;BME280;49539;48.160;11.530;2022-08-19T05:21:17;95382.06;;;18.52;100.00
55149;BME280;49539;48.160;11.530;2022-08-19T05:24:03;95382.34;;;18.54;100.00
55149;BME280;49539;48.160;11.530;2022-08-19T05:26:28;95393.91;;;18.58;100.00
55149;BME280;49539;48.160;11.530;2022-08-19T05:28:55;95389.81;;;18.48;100.00
55149;BME280;49539;48.160;11.530;2022-08-19T05:31:21;95383.91;;;18.60;100.00
55149;BME280;49539;48.160;11.530;2022-08-19T05:33:47;95379.69;;;18.65;100.00
55149;BME280;49539;48.160;11.530;2022-08-19T05:36:13;95369.63;;;18.62;100.00
55149;BME280;49539;48.160;11.530;2022-08-19T05:38:39;95368.66;;;18.65;100.00
55149;BME280;49539;48.160;11.530;2022-08-19T05:41:09;95368.31;;;18.57;100.00
55149;BME280;49539;48.160;11.530;2022-08-19T05:43:35;95377.41;;;18.64;100.00
55149;BME280;49539;48.160;11.530;2022-08-19T05:46:00;95372.88;;;18.60;100.00
55149;BME280;49539;48.160;11.530;2022-08-19T05:48:26;95357.34;;;18.63;100.00
55149;BME280;49539;48.160;11.530;2022-08-19T05:50:52;95367.00;;;18.73;100.00
55149;BME280;49539;48.160;11.530;2022-08-19T05:53:18;95361.88;;;18.66;100.00
55149;BME280;49539;48.160;11.530;2022-08-19T05:55:43;95366.63;;;18.60;100.00
55149;BME280;49539;48.160;11.530;2022-08-19T05:58:10;95374.19;;;18.65;100.00
55149;BME280;49539;48.160;11.530;2022-08-19T06:00:37;95364.16;;;18.68;100.00
55149;BME280;49539;48.160;11.530;2022-08-19T06:03:02;95374.94;;;18.66;100.00
55149;BME280;49539;48.160;11.530;2022-08-19T06:05:31;95374.56;;;18.78;100.00
55149;BME280;49539;48.160;11.530;2022-08-19T06:07:57;95370.84;;;18.81;100.00
55149;BME280;49539;48.160;11.530;2022-08-19T06:10:24;95370.84;;;18.81;100.00
55149;BME280;49539;48.160;11.530;2022-08-19T06:12:49;95365.25;;;18.76;100.00
55149;BME280;49539;48.160;11.530;2022-08-19T06:15:15;95365.75;;;18.74;100.00
55149;BME280;49539;48.160;11.530;2022-08-19T06:17:41;95382.06;;;18.72;100.00
55149;BME280;49539;48.160;11.530;2022-08-19T06:20:13;95397.63;;;18.75;100.00
55149;BME280;49539;48.160;11.530;2022-08-19T06:22:40;95396.66;;;18.78;100.00
55149;BME280;49539;48.160;11.530;2022-08-19T06:25:06;95396.16;;;18.80;100.00
55149;BME280;49539;48.160;11.530;2022-08-19T06:27:32;95391.19;;;18.84;100.00
55149;BME280;49539;48.160;11.530;2022-08-19T06:29:58;95389.25;;;18.90;100.00
55149;BME280;49539;48.160;11.530;2022-08-19T06:32:23;95373.66;;;18.87;100.00
55149;BME280;49539;48.160;11.530;2022-08-19T06:34:49;95382.16;;;18.83;100.00
55149;BME280;49539;48.160;11.530;2022-08-19T06:37:15;95382.16;;;18.83;100.00
55149;BME280;49539;48.160;11.530;2022-08-19T06:39:43;95387.88;;;18.80;100.00
55149;BME280;49539;48.160;11.530;2022-08-19T06:42:09;95389.84;;;18.74;100.00
55149;BME280;49539;48.160;11.530;2022-08-19T06:44:38;95396.41;;;18.76;100.00
55149;BME280;49539;48.160;11.530;2022-08-19T06:47:07;95387.13;;;18.59;100.00
55149;BME280;49539;48.160;11.530;2022-08-19T06:49:33;95394.41;;;18.56;100.00
55149;BME280;49539;48.160;11.530;2022-08-19T06:51:59;95397.91;;;18.57;100.00
55149;BME280;49539;48.160;11.530;2022-08-19T06:54:26;95395.41;;;18.59;100.00
55149;BME280;49539;48.160;11.530;2022-08-19T06:56:54;95397.50;;;18.64;100.00
55149;BME280;49539;48.160;11.530;2022-08-19T06:59:22;95397.00;;;18.66;100.00
55149;BME280;49539;48.160;11.530;2022-08-19T07:01:53;95392.25;;;18.66;100.00
55149;BME280;49539;48.160;11.530;2022-08-19T07:04:22;95393.00;;;18.67;100.00
55149;BME280;49539;48.160;11.530;2022-08-19T07:06:48;95388.38;;;18.58;100.00
55149;BME280;49539;48.160;11.530;2022-08-19T07:09:16;95389.22;;;18.64;100.00
55149;BME280;49539;48.160;11.530;2022-08-19T07:11:47;95391.66;;;18.56;100.00
55149;BME280;49539;48.160;11.530;2022-08-19T07:14:15;95390.88;;;18.56;100.00
55149;BME280;49539;48.160;11.530;2022-08-19T07:16:43;95386.34;;;18.53;100.00
55149;BME280;49539;48.160;11.530;2022-08-19T07:19:10;95388.81;;;18.51;100.00
55149;BME280;49539;48.160;11.530;2022-08-19T07:21:35;95382.00;;;18.46;100.00
55149;BME280;49539;48.160;11.530;2022-08-19T07:24:01;95366.81;;;18.56;100.00
55149;BME280;49539;48.160;11.530;2022-08-19T07:26:29;95360.44;;;18.45;100.00
55149;BME280;49539;48.160;11.530;2022-08-19T07:28:56;95357.84;;;18.35;100.00
55149;BME280;49539;48.160;11.530;2022-08-19T07:31:24;95359.34;;;18.37;100.00
55149;BME280;49539;48.160;11.530;2022-08-19T07:33:52;95353.81;;;18.37;100.00
55149;BME280;49539;48.160;11.530;2022-08-19T07:36:20;95349.22;;;18.54;100.00
55149;BME280;49539;48.160;11.530;2022-08-19T07:38:48;95357.63;;;18.65;100.00
55149;BME280;49539;48.160;11.530;2022-08-19T07:41:17;95360.53;;;18.76;100.00
55149;BME280;49539;48.160;11.530;2022-08-19T07:43:43;95359.69;;;18.96;100.00
55149;BME280;49539;48.160;11.530;2022-08-19T07:46:09;95358.03;;;18.78;100.00
55149;BME280;49539;48.160;11.530;2022-08-19T07:48:35;95367.69;;;18.68;100.00
55149;BME280;49539;48.160;11.530;2022-08-19T07:51:03;95369.63;;;18.62;100.00
55149;BME280;49539;48.160;11.530;2022-08-19T07:53:30;95384.25;;;18.68;100.00
55149;BME280;49539;48.160;11.530;2022-08-19T07:55:56;95373.78;;;18.72;100.00
55149;BME280;49539;48.160;11.530;2022-08-19T07:58:28;95374.03;;;18.74;100.00
55149;BME280;49539;48.160;11.530;2022-08-19T08:00:53;95372.34;;;18.82;100.00
55149;BME280;49539;48.160;11.530;2022-08-19T08:03:21;95371.78;;;18.73;100.00
55149;BME280;49539;48.160;11.530;2022-08-19T08:06:06;95382.06;;;18.72;100.00
55149;BME280;49539;48.160;11.530;2022-08-19T08:08:51;95375.06;;;18.77;100.00
55149;BME280;49539;48.160;11.530;2022-08-19T08:11:35;95371.28;;;18.74;100.00
55149;BME280;49539;48.160;11.530;2022-08-19T08:14:01;95381.47;;;18.89;100.00
55149;BME280;49539;48.160;11.530;2022-08-19T08:16:27;95377.50;;;18.95;100.00
55149;BME280;49539;48.160;11.530;2022-08-19T08:18:56;95381.72;;;18.91;100.00
55149;BME280;49539;48.160;11.530;2022-08-19T08:21:22;95379.25;;;18.93;100.00
55149;BME280;49539;48.160;11.530;2022-08-19T08:23:47;95386.47;;;18.90;100.00
55149;BME280;49539;48.160;11.530;2022-08-19T08:26:12;95390.28;;;18.93;100.00
55149;BME280;49539;48.160;11.530;2022-08-19T08:28:39;95384.22;;;18.89;100.00
55149;BME280;49539;48.160;11.530;2022-08-19T08:31:05;95381.19;;;18.87;100.00
55149;BME280;49539;48.160;11.530;2022-08-19T08:33:30;95380.47;;;18.92;100.00
55149;BME280;49539;48.160;11.530;2022-08-19T08:35:56;95382.03;;;18.98;100.00
55149;BME280;49539;48.160;11.530;2022-08-19T08:38:21;95383.31;;;19.03;100.00
55149;BME280;49539;48.160;11.530;2022-08-19T08:40:52;95385.13;;;19.06;100.00
55149;BME280;49539;48.160;11.530;2022-08-19T08:45:56;95392.03;;;18.96;100.00
55149;BME280;49539;48.160;11.530;2022-08-19T08:48:30;95401.03;;;18.91;100.00
55149;BME280;49539;48.160;11.530;2022-08-19T08:50:59;95406.75;;;18.87;100.00
55149;BME280;49539;48.160;11.530;2022-08-19T08:53:26;95409.06;;;18.89;100.00
55149;BME280;49539;48.160;11.530;2022-08-19T08:55:52;95413.53;;;18.86;100.00
55149;BME280;49539;48.160;11.530;2022-08-19T08:58:28;95413.53;;;18.86;100.00
55149;BME280;49539;48.160;11.530;2022-08-19T09:00:55;95411.94;;;18.79;100.00
55149;BME280;49539;48.160;11.530;2022-08-19T09:03:24;95412.88;;;18.71;100.00
55149;BME280;49539;48.160;11.530;2022-08-19T09:11:10;95430.94;;;18.51;100.00
55149;BME280;49539;48.160;11.530;2022-08-19T09:14:04;95430.13;;;18.45;100.00
55149;BME280;49539;48.160;11.530;2022-08-19T09:16:32;95425.38;;;18.46;100.00
55149;BME280;49539;48.160;11.530;2022-08-19T09:19:03;95431.44;;;18.50;100.00
55149;BME280;49539;48.160;11.530;2022-08-19T09:21:29;95431.22;;;18.53;100.00
55149;BME280;49539;48.160;11.530;2022-08-19T09:23:54;95434.78;;;18.59;100.00
55149;BME280;49539;48.160;11.530;2022-08-19T09:26:22;95437.97;;;18.52;100.00
55149;BME280;49539;48.160;11.530;2022-08-19T09:28:49;95432.94;;;18.51;100.00
55149;BME280;49539;48.160;11.530;2022-08-19T09:31:18;95436.53;;;18.57;100.00
55149;BME280;49539;48.160;11.530;2022-08-19T09:33:44;95435.88;;;18.68;100.00
55149;BME280;49539;48.160;11.530;2022-08-19T09:36:13;95448.03;;;18.76;100.00
55149;BME280;49539;48.160;11.530;2022-08-19T09:38:39;95446.06;;;18.76;100.00
55149;BME280;49539;48.160;11.530;2022-08-19T09:41:12;95451.81;;;18.78;100.00
55149;BME280;49539;48.160;11.530;2022-08-19T09:43:39;95450.56;;;18.79;100.00
55149;BME280;49539;48.160;11.530;2022-08-19T09:46:06;95442.03;;;18.77;100.00
55149;BME280;49539;48.160;11.530;2022-08-19T09:48:33;95437.78;;;18.76;100.00
55149;BME280;49539;48.160;11.530;2022-08-19T09:51:06;95440.00;;;18.72;100.00
55149;BME280;49539;48.160;11.530;2022-08-19T09:53:34;95425.41;;;18.72;100.00
55149;BME280;49539;48.160;11.530;2022-08-19T09:56:00;95425.41;;;18.72;100.00
55149;BME280;49539;48.160;11.530;2022-08-19T09:58:25;95431.34;;;18.65;100.00
55149;BME280;49539;48.160;11.530;2022-08-19T10:00:54;95425.75;;;18.59;100.00
55149;BME280;49539;48.160;11.530;2022-08-19T10:03:20;95430.34;;;18.68;100.00
55149;BME280;49539;48.160;11.530;2022-08-19T10:05:45;95436.19;;;18.70;100.00
55149;BME280;49539;48.160;11.530;2022-08-19T10:08:36;95447.56;;;18.77;100.00
55149;BME280;49539;48.160;11.530;2022-08-19T10:11:02;95454.59;;;18.78;100.00
55149;BME280;49539;48.160;11.530;2022-08-19T10:13:30;95456.38;;;18.81;100.00
55149;BME280;49539;48.160;11.530;2022-08-19T10:16:08;95451.94;;;18.90;100.00
55149;BME280;49539;48.160;11.530;2022-08-19T10:18:36;95447.94;;;18.91;100.00
55149;BME280;49539;48.160;11.530;2022-08-19T10:21:13;95433.97;;;18.74;100.00
55149;BME280;49539;48.160;11.530;2022-08-19T10:23:42;95426.28;;;18.83;100.00
55149;BME280;49539;48.160;11.530;2022-08-19T10:26:16;95425.88;;;18.91;100.00
55149;BME280;49539;48.160;11.530;2022-08-19T10:28:42;95426.31;;;19.09;100.00
55149;BME280;49539;48.160;11.530;2022-08-19T10:31:11;95432.97;;;19.29;100.00
55149;BME280;49539;48.160;11.530;2022-08-19T10:33:37;95430.13;;;19.49;100.00
55149;BME280;49539;48.160;11.530;2022-08-19T10:36:07;95421.91;;;19.55;100.00
55149;BME280;49539;48.160;11.530;2022-08-19T10:38:33;95408.91;;;19.61;100.00
55149;BME280;49539;48.160;11.530;2022-08-19T10:41:06;95397.44;;;19.74;100.00
55149;BME280;49539;48.160;11.530;2022-08-19T10:43:32;95389.22;;;19.91;100.00
55149;BME280;49539;48.160;11.530;2022-08-19T10:46:02;95395.88;;;20.10;100.00
55149;BME280;49539;48.160;11.530;2022-08-19T10:48:28;95388.91;;;20.31;100.00
55149;BME280;49539;48.160;11.530;2022-08-19T10:50:54;95391.72;;;20.43;100.00
55149;BME280;49539;48.160;11.530;2022-08-19T10:53:37;95398.41;;;20.19;100.00
55149;BME280;49539;48.160;11.530;2022-08-19T10:56:03;95396.63;;;20.11;100.00
55149;BME280;49539;48.160;11.530;2022-08-19T10:58:47;95391.38;;;20.13;100.00
55149;BME280;49539;48.160;11.530;2022-08-19T11:01:14;95396.06;;;20.01;100.00
55149;BME280;49539;48.160;11.530;2022-08-19T11:03:39;95405.66;;;20.05;100.00
55149;BME280;49539;48.160;11.530;2022-08-19T11:06:07;95393.78;;;19.99;100.00
55149;BME280;49539;48.160;11.530;2022-08-19T11:08:33;95391.28;;;19.96;100.00
55149;BME280;49539;48.160;11.530;2022-08-19T11:11:01;95396.31;;;20.03;100.00
55149;BME280;49539;48.160;11.530;2022-08-19T11:13:32;95387.75;;;19.95;100.00
55149;BME280;49539;48.160;11.530;2022-08-19T11:16:20;95393.84;;;20.11;100.00
55149;BME280;49539;48.160;11.530;2022-08-19T11:18:52;95379.78;;;20.08;100.00
55149;BME280;49539;48.160;11.530;2022-08-19T11:21:24;95378.31;;;20.19;100.00
55149;BME280;49539;48.160;11.530;2022-08-19T11:23:52;95367.00;;;20.22;100.00
55149;BME280;49539;48.160;11.530;2022-08-19T11:26:19;95367.03;;;20.28;100.00
55149;BME280;49539;48.160;11.530;2022-08-19T11:28:45;95368.78;;;20.31;100.00
55149;BME280;49539;48.160;11.530;2022-08-19T11:31:13;95368.81;;;20.37;100.00
55149;BME280;49539;48.160;11.530;2022-08-19T11:33:39;95373.66;;;20.53;100.00
55149;BME280;49539;48.160;11.530;2022-08-19T11:36:05;95372.13;;;20.46;100.00
55149;BME280;49539;48.160;11.530;2022-08-19T11:38:30;95372.47;;;20.76;100.00
55149;BME280;49539;48.160;11.530;2022-08-19T11:40:58;95370.47;;;20.94;100.00
55149;BME280;49539;48.160;11.530;2022-08-19T11:43:24;95353.63;;;21.03;100.00
55149;BME280;49539;48.160;11.530;2022-08-19T11:45:53;95355.13;;;21.26;100.00
55149;BME280;49539;48.160;11.530;2022-08-19T11:48:18;95357.41;;;21.28;100.00
55149;BME280;49539;48.160;11.530;2022-08-19T11:50:50;95356.38;;;21.25;100.00
55149;BME280;49539;48.160;11.530;2022-08-19T11:53:17;95355.66;;;21.19;100.00
55149;BME280;49539;48.160;11.530;2022-08-19T11:55:44;95355.09;;;20.98;100.00
55149;BME280;49539;48.160;11.530;2022-08-19T11:58:11;95375.75;;;20.75;100.00
55149;BME280;49539;48.160;11.530;2022-08-19T12:00:38;95372.34;;;20.37;100.00
55149;BME280;49539;48.160;11.530;2022-08-19T12:03:04;95380.56;;;20.15;100.00
55149;BME280;49539;48.160;11.530;2022-08-19T12:05:29;95381.56;;;20.17;100.00
55149;BME280;49539;48.160;11.530;2022-08-19T12:07:55;95390.78;;;20.03;100.00
55149;BME280;49539;48.160;11.530;2022-08-19T12:10:21;95398.03;;;19.95;100.00
55149;BME280;49539;48.160;11.530;2022-08-19T12:12:47;95391.22;;;19.85;100.00
55149;BME280;49539;48.160;11.530;2022-08-19T12:15:13;95387.50;;;19.99;100.00
55149;BME280;49539;48.160;11.530;2022-08-19T12:17:40;95386.69;;;19.87;100.00
55149;BME280;49539;48.160;11.530;2022-08-19T12:20:08;95386.00;;;19.92;100.00
55149;BME280;49539;48.160;11.530;2022-08-19T12:22:35;95395.34;;;20.06;100.00
55149;BME280;49539;48.160;11.530;2022-08-19T12:25:01;95402.13;;;20.05;100.00
55149;BME280;49539;48.160;11.530;2022-08-19T12:27:26;95402.41;;;20.13;100.00
55149;BME280;49539;48.160;11.530;2022-08-19T12:29:52;95401.50;;;20.38;100.00
55149;BME280;49539;48.160;11.530;2022-08-19T12:32:17;95403.84;;;20.51;100.00
55149;BME280;49539;48.160;11.530;2022-08-19T12:34:42;95387.53;;;20.64;100.00
55149;BME280;49539;48.160;11.530;2022-08-19T12:37:08;95385.78;;;20.72;100.00
55149;BME280;49539;48.160;11.530;2022-08-19T12:39:36;95386.53;;;20.73;100.00
55149;BME280;49539;48.160;11.530;2022-08-19T12:42:01;95383.81;;;20.95;100.00
55149;BME280;49539;48.160;11.530;2022-08-19T12:44:26;95384.09;;;21.03;100.00
55149;BME280;49539;48.160;11.530;2022-08-19T12:46:52;95380.06;;;21.21;100.00
55149;BME280;49539;48.160;11.530;2022-08-19T12:49:17;95384.53;;;21.80;100.00
55149;BME280;49539;48.160;11.530;2022-08-19T12:51:42;95385.06;;;21.67;100.00
55149;BME280;49539;48.160;11.530;2022-08-19T12:54:08;95382.31;;;21.73;100.00